createdAt,value
2023-03-25T00:01:20.826Z,6.38
2023-03-25T00:03:53.496Z,5.93
2023-03-25T00:06:24.335Z,5.43
2023-03-25T00:08:55.130Z,5.82
2023-03-25T00:11:29.173Z,6.03
2023-03-25T00:14:00.317Z,6.22
2023-03-25T00:16:31.030Z,8.00
2023-03-25T00:19:02.849Z,6.85
2023-03-25T00:21:33.896Z,6.60
2023-03-25T00:24:05.339Z,6.97
2023-03-25T00:26:42.950Z,6.97
2023-03-25T00:29:13.781Z,5.55
2023-03-25T00:31:44.614Z,5.20
2023-03-25T00:34:16.092Z,7.32
2023-03-25T00:36:46.829Z,6.50
2023-03-25T00:39:17.529Z,6.68
2023-03-25T00:41:50.819Z,6.80
2023-03-25T00:44:22.733Z,7.38
2023-03-25T00:46:53.502Z,6.45
2023-03-25T00:49:25.440Z,6.93
2023-03-25T00:51:56.355Z,6.25
2023-03-25T00:54:27.487Z,6.38
2023-03-25T00:57:01.198Z,7.43
2023-03-25T00:59:31.958Z,6.25
2023-03-25T01:02:04.105Z,6.35
2023-03-25T01:04:34.866Z,6.30
2023-03-25T01:07:05.741Z,7.32
2023-03-25T01:09:37.113Z,6.50
2023-03-25T01:12:10.816Z,5.93
2023-03-25T01:14:42.326Z,7.00
2023-03-25T01:17:13.264Z,7.65
2023-03-25T01:19:44.176Z,6.85
2023-03-25T01:22:14.892Z,6.43
2023-03-25T01:24:46.339Z,6.75
2023-03-25T01:27:20.189Z,6.97
2023-03-25T01:29:50.970Z,6.90
2023-03-25T01:32:21.680Z,6.15
2023-03-25T01:34:52.514Z,6.82
2023-03-25T01:37:25.918Z,6.65
2023-03-25T01:39:56.802Z,6.75
2023-03-25T01:42:30.169Z,7.25
2023-03-25T01:45:23.586Z,6.75
2023-03-25T01:47:59.310Z,7.38
2023-03-25T01:50:32.858Z,5.80
2023-03-25T01:53:06.530Z,6.65
2023-03-25T01:55:38.546Z,5.88
2023-03-25T01:58:16.873Z,7.20
2023-03-25T02:00:49.247Z,5.30
2023-03-25T02:03:24.687Z,5.45
2023-03-25T02:06:03.093Z,6.28
2023-03-25T02:08:37.942Z,5.85
2023-03-25T02:11:09.711Z,5.00
2023-03-25T02:13:45.101Z,5.88
2023-03-25T02:16:33.690Z,5.72
2023-03-25T02:19:26.568Z,5.88
2023-03-25T02:22:29.176Z,6.30
2023-03-25T02:25:25.566Z,6.10
2023-03-25T02:28:05.221Z,6.68
2023-03-25T02:31:15.192Z,6.13
2023-03-25T02:34:13.453Z,6.75
2023-03-25T02:37:16.856Z,5.85
2023-03-25T02:39:53.151Z,6.25
2023-03-25T02:42:29.903Z,6.65
2023-03-25T02:45:04.824Z,6.47
2023-03-25T02:47:38.704Z,6.72
2023-03-25T02:50:14.708Z,7.05
2023-03-25T02:52:50.350Z,7.10
2023-03-25T02:55:26.449Z,6.90
2023-03-25T02:57:59.675Z,6.32
2023-03-25T03:00:32.260Z,6.05
2023-03-25T03:03:05.072Z,6.38
2023-03-25T03:05:39.180Z,6.78
2023-03-25T03:08:29.635Z,6.93
2023-03-25T03:11:11.146Z,8.27
2023-03-25T03:13:56.180Z,7.03
2023-03-25T03:16:35.874Z,6.37
2023-03-25T03:19:21.527Z,6.40
2023-03-25T03:22:01.471Z,5.90
2023-03-25T03:24:36.109Z,6.32
2023-03-25T03:27:16.880Z,5.57
2023-03-25T03:29:51.727Z,6.30
2023-03-25T03:32:30.005Z,5.60
2023-03-25T03:35:04.405Z,6.65
2023-03-25T03:37:39.796Z,6.07
2023-03-25T03:40:14.496Z,6.03
2023-03-25T03:42:51.773Z,6.13
2023-03-25T03:45:27.014Z,6.10
2023-03-25T03:48:02.010Z,5.95
2023-03-25T03:50:36.908Z,5.90
2023-03-25T03:53:12.814Z,5.60
2023-03-25T03:55:46.568Z,6.00
2023-03-25T03:58:25.746Z,6.03
2023-03-25T04:01:03.436Z,6.63
2023-03-25T04:03:39.185Z,5.95
2023-03-25T04:06:19.044Z,6.20
2023-03-25T04:08:59.364Z,6.03
2023-03-25T04:11:36.096Z,6.15
2023-03-25T04:14:10.759Z,6.43
2023-03-25T04:16:41.393Z,5.93
2023-03-25T04:19:14.004Z,7.35
2023-03-25T04:21:44.674Z,8.02
2023-03-25T04:24:17.108Z,9.82
2023-03-25T04:26:48.027Z,9.45
2023-03-25T04:29:21.335Z,9.45
2023-03-25T04:31:55.121Z,7.97
2023-03-25T04:34:27.507Z,7.80
2023-03-25T04:36:59.127Z,6.47
2023-03-25T04:39:30.206Z,6.53
2023-03-25T04:42:02.155Z,5.80
2023-03-25T04:44:39.496Z,6.10
2023-03-25T04:47:16.594Z,7.75
2023-03-25T04:49:48.415Z,7.28
2023-03-25T04:52:19.618Z,5.72
2023-03-25T04:54:50.381Z,8.23
2023-03-25T04:57:21.429Z,8.18
2023-03-25T04:59:54.766Z,7.43
2023-03-25T05:02:25.478Z,8.70
2023-03-25T05:05:02.434Z,8.07
2023-03-25T05:07:33.720Z,7.93
2023-03-25T05:10:04.468Z,6.18
2023-03-25T05:12:35.251Z,6.13
2023-03-25T05:15:10.103Z,5.53
2023-03-25T05:17:41.585Z,5.70
2023-03-25T05:20:13.685Z,5.88
2023-03-25T05:22:45.952Z,5.60
2023-03-25T05:25:18.457Z,4.68
2023-03-25T05:27:49.128Z,5.43
2023-03-25T05:30:22.670Z,5.25
2023-03-25T05:32:56.494Z,5.18
2023-03-25T05:35:27.861Z,5.10
2023-03-25T05:37:58.853Z,5.35
2023-03-25T05:40:29.613Z,5.45
2023-03-25T05:43:00.339Z,4.75
2023-03-25T05:45:33.719Z,4.55
2023-03-25T05:48:05.263Z,4.50
2023-03-25T05:50:36.175Z,4.32
2023-03-25T05:53:06.904Z,4.75
2023-03-25T05:55:38.746Z,4.43
2023-03-25T05:58:10.173Z,4.50
2023-03-25T06:00:43.956Z,3.58
2023-03-25T06:03:14.790Z,4.15
2023-03-25T06:05:45.603Z,4.10
2023-03-25T06:08:17.488Z,4.00
2023-03-25T06:10:49.123Z,4.28
2023-03-25T06:13:19.795Z,4.97
2023-03-25T06:15:56.413Z,4.72
2023-03-25T06:18:27.875Z,3.80
2023-03-25T06:20:59.074Z,4.18
2023-03-25T06:23:31.719Z,3.95
2023-03-25T06:26:02.430Z,3.90
2023-03-25T06:28:34.011Z,4.18
2023-03-25T06:31:09.231Z,4.53
2023-03-25T06:36:15.689Z,5.88
2023-03-25T06:38:46.333Z,4.93
2023-03-25T06:41:20.858Z,5.13
2023-03-25T06:44:01.182Z,4.90
2023-03-25T06:46:52.673Z,3.90
2023-03-25T06:49:34.599Z,5.00
2023-03-25T06:52:05.386Z,4.50
2023-03-25T06:54:36.128Z,3.95
2023-03-25T06:57:07.046Z,3.90
2023-03-25T06:59:37.848Z,4.53
2023-03-25T07:02:11.393Z,4.35
2023-03-25T07:04:42.172Z,3.35
2023-03-25T07:07:13.113Z,3.88
2023-03-25T07:09:43.805Z,3.88
2023-03-25T07:12:14.536Z,4.10
2023-03-25T07:14:46.836Z,4.40
2023-03-25T07:17:20.320Z,5.15
2023-03-25T07:19:51.501Z,3.70
2023-03-25T07:22:22.287Z,3.53
2023-03-25T07:24:53.128Z,3.53
2023-03-25T07:27:23.862Z,2.95
2023-03-25T07:30:03.590Z,5.15
2023-03-25T07:32:37.165Z,2.47
2023-03-25T07:35:09.687Z,2.28
2023-03-25T07:37:40.663Z,2.53
2023-03-25T07:40:12.810Z,2.50
2023-03-25T07:42:43.603Z,2.47
2023-03-25T07:45:44.022Z,2.53
2023-03-25T07:48:18.139Z,2.20
2023-03-25T07:50:49.935Z,2.28
2023-03-25T07:53:20.678Z,4.13
2023-03-25T07:55:52.144Z,2.67
2023-03-25T07:58:23.291Z,2.05
2023-03-25T08:00:54.044Z,2.30
2023-03-25T08:03:28.353Z,2.95
2023-03-25T08:05:59.235Z,3.95
2023-03-25T08:08:30.452Z,2.63
2023-03-25T08:11:02.070Z,2.38
2023-03-25T08:13:33.412Z,2.80
2023-03-25T08:16:04.192Z,2.92
2023-03-25T08:18:37.501Z,2.88
2023-03-25T08:21:10.412Z,2.80
2023-03-25T08:23:41.349Z,2.40
2023-03-25T08:26:12.116Z,2.50
2023-03-25T08:28:42.799Z,2.50
2023-03-25T08:31:15.756Z,2.55
2023-03-25T08:33:49.247Z,2.90
2023-03-25T08:36:23.584Z,2.47
2023-03-25T08:38:54.771Z,2.83
2023-03-25T08:41:25.757Z,2.95
2023-03-25T08:43:56.365Z,2.83
2023-03-25T08:46:27.223Z,3.38
2023-03-25T08:49:01.553Z,2.90
2023-03-25T08:51:32.329Z,2.90
2023-03-25T08:54:03.256Z,2.53
2023-03-25T08:56:34.143Z,2.80
2023-03-25T08:59:04.847Z,2.80
2023-03-25T09:01:35.757Z,2.83
2023-03-25T09:04:09.233Z,2.67
2023-03-25T09:06:47.232Z,2.72
2023-03-25T09:09:19.142Z,3.13
2023-03-25T09:11:49.816Z,2.78
2023-03-25T09:14:20.701Z,3.70
2023-03-25T09:16:51.521Z,2.50
2023-03-25T09:19:25.071Z,3.33
2023-03-25T09:21:55.904Z,2.60
2023-03-25T09:24:26.681Z,2.90
2023-03-25T09:26:57.434Z,2.80
2023-03-25T09:29:28.127Z,3.10
2023-03-25T09:32:00.036Z,3.38
2023-03-25T09:34:33.648Z,3.00
2023-03-25T09:37:04.938Z,3.03
2023-03-25T09:39:35.615Z,2.78
2023-03-25T09:42:31.683Z,2.92
2023-03-25T09:45:15.913Z,3.33
2023-03-25T09:47:56.163Z,3.38
2023-03-25T09:50:32.255Z,3.60
2023-03-25T09:53:06.854Z,3.35
2023-03-25T09:55:44.071Z,3.33
2023-03-25T09:58:32.102Z,2.80
2023-03-25T10:01:08.082Z,3.20
2023-03-25T10:03:49.000Z,3.15
2023-03-25T10:06:26.619Z,3.20
2023-03-25T10:09:21.953Z,3.28
2023-03-25T10:12:01.191Z,2.92
2023-03-25T10:14:41.249Z,3.17
2023-03-25T10:17:20.446Z,3.33
2023-03-25T10:20:01.083Z,3.17
2023-03-25T10:22:45.472Z,3.10
2023-03-25T10:25:19.151Z,2.90
2023-03-25T10:27:53.362Z,2.95
2023-03-25T10:30:27.920Z,3.17
2023-03-25T10:33:00.098Z,2.90
2023-03-25T10:35:33.112Z,3.10
2023-03-25T10:38:14.487Z,3.35
2023-03-25T10:40:50.528Z,3.08
2023-03-25T10:43:29.020Z,3.65
2023-03-25T10:46:05.561Z,3.35
2023-03-25T10:48:37.235Z,3.05
2023-03-25T10:51:11.806Z,3.15
2023-03-25T10:53:48.311Z,3.55
2023-03-25T10:56:21.203Z,3.40
2023-03-25T10:58:55.304Z,3.05
2023-03-25T11:01:34.814Z,3.30
2023-03-25T11:04:07.774Z,3.10
2023-03-25T11:06:42.522Z,3.40
2023-03-25T11:09:28.406Z,3.40
2023-03-25T11:12:02.903Z,3.10
2023-03-25T11:14:33.970Z,3.20
2023-03-25T11:17:06.858Z,3.17
2023-03-25T11:19:43.228Z,3.45
2023-03-25T11:22:20.158Z,3.55
2023-03-25T11:24:57.574Z,2.70
2023-03-25T11:27:31.126Z,2.45
2023-03-25T11:30:07.067Z,2.40
2023-03-25T11:32:40.039Z,2.60
2023-03-25T11:35:21.087Z,2.88
2023-03-25T11:37:58.681Z,2.92
2023-03-25T11:40:33.941Z,2.15
2023-03-25T11:43:06.529Z,2.58
2023-03-25T11:45:39.622Z,4.07
2023-03-25T11:48:15.601Z,2.78
2023-03-25T11:50:53.054Z,2.45
2023-03-25T11:53:28.248Z,2.50
2023-03-25T11:56:04.990Z,2.75
2023-03-25T11:58:38.845Z,2.63
2023-03-25T12:01:21.245Z,2.35
2023-03-25T12:03:52.184Z,2.53
2023-03-25T12:06:24.836Z,2.58
2023-03-25T12:08:59.594Z,2.63
2023-03-25T12:14:32.470Z,2.72
2023-03-25T12:17:09.232Z,2.60
2023-03-25T12:19:48.521Z,2.40
2023-03-25T12:22:34.359Z,2.58
2023-03-25T12:25:22.063Z,2.83
2023-03-25T12:28:23.208Z,2.75
2023-03-25T12:31:04.614Z,2.70
2023-03-25T12:33:50.840Z,3.63
2023-03-25T12:36:42.175Z,3.20
2023-03-25T12:39:43.527Z,2.58
2023-03-25T12:42:29.771Z,2.72
2023-03-25T12:45:21.795Z,3.13
2023-03-25T12:47:58.831Z,2.78
2023-03-25T12:50:42.347Z,2.80
2023-03-25T12:53:35.885Z,2.58
2023-03-25T12:56:19.555Z,2.38
2023-03-25T12:59:02.788Z,2.20
2023-03-25T13:01:49.775Z,2.63
2023-03-25T13:04:33.114Z,2.10
2023-03-25T13:07:07.378Z,2.63
2023-03-25T13:09:54.088Z,1.88
2023-03-25T13:12:34.864Z,1.90
2023-03-25T13:15:24.573Z,2.05
2023-03-25T13:18:04.326Z,2.10
2023-03-25T13:20:41.579Z,2.10
2023-03-25T13:23:17.920Z,1.95
2023-03-25T13:25:54.600Z,2.22
2023-03-25T13:28:29.280Z,2.30
2023-03-25T13:31:00.733Z,2.30
2023-03-25T13:33:39.245Z,2.17
2023-03-25T13:36:18.665Z,2.60
2023-03-25T13:38:54.341Z,2.22
2023-03-25T13:41:31.639Z,2.03
2023-03-25T13:44:11.118Z,2.03
2023-03-25T13:46:46.328Z,2.13
2023-03-25T13:49:26.635Z,2.30
2023-03-25T13:51:57.705Z,2.10
2023-03-25T13:54:32.405Z,2.30
2023-03-25T13:57:38.867Z,2.72
2023-03-25T14:00:34.236Z,2.10
2023-03-25T14:03:34.854Z,1.98
2023-03-25T14:06:29.737Z,2.50
2023-03-25T14:09:25.199Z,2.20
2023-03-25T14:12:04.134Z,2.75
2023-03-25T14:14:39.813Z,2.47
2023-03-25T14:17:12.235Z,2.50
2023-03-25T14:19:46.652Z,2.65
2023-03-25T14:22:21.989Z,2.90
2023-03-25T14:24:54.213Z,2.90
2023-03-25T14:27:30.343Z,2.78
2023-03-25T14:30:03.555Z,2.88
2023-03-25T14:32:39.666Z,2.72
2023-03-25T14:35:41.632Z,2.50
2023-03-25T14:38:53.801Z,3.38
2023-03-25T14:42:00.411Z,2.60
2023-03-25T14:44:35.906Z,3.30
2023-03-25T14:47:33.241Z,2.97
2023-03-25T14:50:30.775Z,4.05
2023-03-25T14:53:05.223Z,3.03
2023-03-25T14:55:39.632Z,4.00
2023-03-25T14:58:22.007Z,4.00
2023-03-25T15:00:59.113Z,3.63
2023-03-25T15:03:37.040Z,4.72
2023-03-25T15:06:07.995Z,3.10
2023-03-25T15:08:41.120Z,3.42
2023-03-25T15:11:14.945Z,2.88
2023-03-25T15:13:53.168Z,2.53
2023-03-25T15:16:35.173Z,3.60
2023-03-25T15:19:11.674Z,3.35
2023-03-25T15:22:12.156Z,3.47
2023-03-25T15:24:44.041Z,4.40
2023-03-25T15:27:26.397Z,4.40
2023-03-25T15:30:06.279Z,3.45
2023-03-25T15:32:51.979Z,3.70
2023-03-25T15:35:47.880Z,3.40
2023-03-25T15:44:24.153Z,3.97
2023-03-25T15:47:10.758Z,4.18
2023-03-25T15:50:02.535Z,3.75
2023-03-25T15:52:54.305Z,2.75
2023-03-25T15:55:32.312Z,3.60
2023-03-25T15:58:07.030Z,3.30
2023-03-25T16:00:41.899Z,3.45
2023-03-25T16:03:18.850Z,3.78
2023-03-25T16:05:56.557Z,4.22
2023-03-25T16:08:31.670Z,3.88
2023-03-25T16:13:46.809Z,4.30
2023-03-25T16:16:21.054Z,3.72
2023-03-25T16:18:54.661Z,4.00
2023-03-25T16:21:30.825Z,4.25
2023-03-25T16:24:06.157Z,3.70
2023-03-25T16:26:39.013Z,4.20
2023-03-25T16:29:12.768Z,4.50
2023-03-25T16:31:44.345Z,3.53
2023-03-25T16:34:18.368Z,3.88
2023-03-25T16:36:55.035Z,4.10
2023-03-25T16:39:28.293Z,4.20
2023-03-25T16:42:06.736Z,4.35
2023-03-25T16:44:37.972Z,4.50
2023-03-25T16:47:09.261Z,4.88
2023-03-25T16:49:42.531Z,4.50
2023-03-25T16:52:19.968Z,5.32
2023-03-25T16:55:25.545Z,6.28
2023-03-25T16:57:56.314Z,7.00
2023-03-25T17:00:27.552Z,9.00
2023-03-25T17:02:58.362Z,9.55
2023-03-25T17:05:32.333Z,17.45
2023-03-25T17:08:08.443Z,11.35
2023-03-25T17:10:50.962Z,9.60
2023-03-25T17:13:27.827Z,9.25
2023-03-25T17:15:58.993Z,10.80
2023-03-25T17:18:34.951Z,8.82
2023-03-25T17:21:06.391Z,9.25
2023-03-25T17:23:46.153Z,7.60
2023-03-25T17:26:20.274Z,5.78
2023-03-25T17:29:03.475Z,8.23
2023-03-25T17:31:38.245Z,8.70
2023-03-25T17:34:11.252Z,6.97
2023-03-25T17:36:45.942Z,7.53
2023-03-25T17:39:22.986Z,10.00
2023-03-25T17:42:01.702Z,11.07
2023-03-25T17:44:37.688Z,9.02
2023-03-25T17:47:11.158Z,11.27
2023-03-25T17:49:41.911Z,9.40
2023-03-25T17:52:13.092Z,9.00
2023-03-25T17:54:47.027Z,7.38
2023-03-25T17:57:20.750Z,8.02
2023-03-25T17:59:51.966Z,8.75
2023-03-25T18:02:22.798Z,8.30
2023-03-25T18:04:53.533Z,7.80
2023-03-25T18:07:24.352Z,8.80
2023-03-25T18:09:57.667Z,9.13
2023-03-25T18:12:28.460Z,9.32
2023-03-25T18:14:59.374Z,8.70
2023-03-25T18:17:30.893Z,8.20
2023-03-25T18:20:01.700Z,7.40
2023-03-25T18:22:34.068Z,6.70
2023-03-25T18:25:07.850Z,6.53
2023-03-25T18:27:43.686Z,6.05
2023-03-25T18:30:24.876Z,5.43
2023-03-25T18:32:55.899Z,7.47
2023-03-25T18:35:27.590Z,6.82
2023-03-25T18:37:58.982Z,7.90
2023-03-25T18:40:36.786Z,8.27
2023-03-25T18:43:07.596Z,7.05
2023-03-25T18:45:38.431Z,6.30
2023-03-25T18:48:10.070Z,5.40
2023-03-25T18:50:42.708Z,7.93
2023-03-25T18:53:13.774Z,6.35
2023-03-25T18:55:48.002Z,7.70
2023-03-25T18:58:21.033Z,8.02
2023-03-25T19:00:53.846Z,7.00
2023-03-25T19:03:30.769Z,7.60
2023-03-25T19:06:04.657Z,7.70
2023-03-25T19:08:37.180Z,6.78
2023-03-25T19:11:20.979Z,6.88
2023-03-25T19:13:53.187Z,7.25
2023-03-25T19:16:24.482Z,9.55
2023-03-25T19:18:55.347Z,11.25
2023-03-25T19:21:26.113Z,10.73
2023-03-25T19:23:57.020Z,11.38
2023-03-25T19:26:30.402Z,12.18
2023-03-25T19:29:01.269Z,11.80
2023-03-25T19:31:32.179Z,11.70
2023-03-25T19:34:03.153Z,10.52
2023-03-25T19:36:35.263Z,12.23
2023-03-25T19:39:06.650Z,13.68
2023-03-25T19:41:43.005Z,14.43
2023-03-25T19:44:14.811Z,14.65
2023-03-25T19:46:45.783Z,14.52
2023-03-25T19:49:25.886Z,14.52
2023-03-25T19:52:03.643Z,14.15
2023-03-25T19:54:34.419Z,14.23
2023-03-25T19:57:09.818Z,13.57
2023-03-25T19:59:40.596Z,12.55
2023-03-25T20:02:11.288Z,13.57
2023-03-25T20:04:42.193Z,13.13
2023-03-25T20:07:12.973Z,13.80
2023-03-25T20:09:45.936Z,13.10
2023-03-25T20:12:19.238Z,14.85
2023-03-25T20:14:50.053Z,14.82
2023-03-25T20:17:20.982Z,18.35
2023-03-25T20:19:51.852Z,15.05
2023-03-25T20:22:24.824Z,13.43
2023-03-25T20:24:57.015Z,10.95
2023-03-25T20:27:31.301Z,10.40
2023-03-25T20:30:02.364Z,10.85
2023-03-25T20:32:41.829Z,9.60
2023-03-25T20:35:16.165Z,9.65
2023-03-25T20:37:49.222Z,10.65
2023-03-25T20:40:27.994Z,9.77
2023-03-25T20:43:07.635Z,8.70
2023-03-25T20:45:38.479Z,8.50
2023-03-25T20:48:09.564Z,8.30
2023-03-25T20:50:40.692Z,8.27
2023-03-25T20:53:12.008Z,9.43
2023-03-25T20:55:43.051Z,8.88
2023-03-25T20:58:16.491Z,8.75
2023-03-25T21:00:48.699Z,9.02
2023-03-25T21:03:19.428Z,8.18
2023-03-25T21:05:50.288Z,9.45
2023-03-25T21:08:20.907Z,9.63
2023-03-25T21:10:52.324Z,9.93
2023-03-25T21:13:26.633Z,9.75
2023-03-25T21:15:58.978Z,9.50
2023-03-25T21:18:30.140Z,9.82
2023-03-25T21:21:03.468Z,8.90
2023-03-25T21:23:34.236Z,8.20
2023-03-25T21:26:09.695Z,8.43
2023-03-25T21:31:19.030Z,8.50
2023-03-25T21:33:51.556Z,9.68
2023-03-25T21:36:24.908Z,9.98
2023-03-25T21:38:59.467Z,10.80
2023-03-25T21:41:31.415Z,10.00
2023-03-25T21:44:05.475Z,9.70
2023-03-25T21:46:37.109Z,8.05
2023-03-25T21:49:09.173Z,8.48
2023-03-25T21:51:42.774Z,9.35
2023-03-25T21:54:15.736Z,9.40
2023-03-25T21:56:47.316Z,9.20
2023-03-25T21:59:20.651Z,9.50
2023-03-25T22:01:53.029Z,9.80
2023-03-25T22:04:25.105Z,9.38
2023-03-25T22:06:56.950Z,9.07
2023-03-25T22:09:27.520Z,8.90
2023-03-25T22:11:58.772Z,9.05
2023-03-25T22:14:32.126Z,7.43
2023-03-25T22:17:02.966Z,7.32
2023-03-25T22:19:34.215Z,6.72
2023-03-25T22:22:05.156Z,7.35
2023-03-25T22:24:35.890Z,6.95
2023-03-25T22:27:06.764Z,7.13
2023-03-25T22:29:40.736Z,7.05
2023-03-25T22:32:11.527Z,7.60
2023-03-25T22:34:42.556Z,7.53
2023-03-25T22:37:13.275Z,8.63
2023-03-25T22:39:43.921Z,8.52
2023-03-25T22:42:14.739Z,7.90
2023-03-25T22:44:48.767Z,8.25
2023-03-25T22:47:19.436Z,8.15
2023-03-25T22:49:50.126Z,8.85
2023-03-25T22:52:20.966Z,7.90
2023-03-25T22:54:51.741Z,8.02
2023-03-25T22:57:22.472Z,8.25
2023-03-25T22:59:56.138Z,7.90
2023-03-25T23:02:27.063Z,7.30
2023-03-25T23:04:59.096Z,7.20
2023-03-25T23:07:29.919Z,8.82
2023-03-25T23:10:00.760Z,7.13
2023-03-25T23:12:31.721Z,7.80
2023-03-25T23:15:05.112Z,7.20
2023-03-25T23:17:36.637Z,7.00
2023-03-25T23:20:09.594Z,6.07
2023-03-25T23:22:40.665Z,5.82
2023-03-25T23:25:12.659Z,4.50
2023-03-25T23:27:45.286Z,5.35
2023-03-25T23:30:19.861Z,5.13
2023-03-25T23:32:50.647Z,5.50
2023-03-25T23:35:21.625Z,5.38
2023-03-25T23:37:53.752Z,5.50
2023-03-25T23:40:24.553Z,5.88
2023-03-25T23:42:55.311Z,5.38
2023-03-25T23:45:34.066Z,5.32
2023-03-25T23:48:04.746Z,5.32
2023-03-25T23:50:35.712Z,5.25
2023-03-25T23:53:06.550Z,4.90
2023-03-25T23:55:37.537Z,5.07
2023-03-25T23:58:08.317Z,4.68
